Time;durP1;ratioP1;P1;durP2;ratioP2;P2;SDS_P1;SDS_P2;PMS_P1;PMS_P2;Temp;Humidity;BMP_temperature;BMP_pressure;BME280_temperature;BME280_humidity;BME280_pressure;Samples;Min_cycle;Max_cycle;Signal;HPM_P1;HPM_P2
2023/01/04 00:08:23;;;;;;;0.20;0.03;;;10.80;99.90;;;;;;20839251;28;20412;-71
2023/01/04 00:18:27;;;;;;;0.20;0.10;;;10.80;99.90;;;;;;20873458;28;20430;-71
2023/01/04 00:28:32;;;;;;;0.20;0.10;;;10.50;99.90;;;;;;20895750;28;20404;-71
2023/01/04 00:38:36;;;;;;;0.20;0.10;;;10.30;99.90;;;;;;20892047;28;20477;-71
2023/01/04 00:48:41;;;;;;;0.20;0.00;;;10.30;99.90;;;;;;20899192;28;20479;-70
2023/01/04 00:58:54;;;;;;;0.20;0.10;;;10.30;99.90;;;;;;20900786;28;20511;-71
2023/01/04 01:09:00;;;;;;;0.20;0.10;;;10.20;99.90;;;;;;20970978;28;20413;-70
2023/01/04 01:19:04;;;;;;;0.20;0.08;;;10.40;99.90;;;;;;20963681;28;20406;-71
2023/01/04 01:29:10;;;;;;;0.20;0.10;;;10.30;99.90;;;;;;20946693;28;20741;-71
2023/01/04 01:39:14;;;;;;;0.20;0.00;;;10.30;99.90;;;;;;20945676;28;20406;-70
2023/01/04 01:49:25;;;;;;;0.20;0.10;;;10.30;99.90;;;;;;20980008;28;20410;-70
2023/01/04 01:59:30;;;;;;;0.20;0.10;;;10.30;99.90;;;;;;20962001;28;20880;-71
2023/01/04 02:09:53;;;;;;;0.20;0.00;;;10.30;99.90;;;;;;20918395;28;20400;-70
2023/01/04 02:20:25;;;;;;;0.20;0.10;;;10.10;99.90;;;;;;20895694;28;20415;-71
2023/01/04 02:30:54;;;;;;;0.20;0.10;;;10.20;99.90;;;;;;20953277;28;20443;-71
2023/01/04 02:41:07;;;;;;;0.20;0.10;;;10.20;99.90;;;;;;20943319;28;20468;-71
2023/01/04 02:51:29;;;;;;;0.20;0.10;;;10.40;99.90;;;;;;20970057;28;20394;-71
2023/01/04 03:54:15;;;;;;;0.20;0.10;;;10.20;99.90;;;;;;20970855;28;21052;-70
2023/01/04 04:14:41;;;;;;;0.20;0.00;;;10.10;99.90;;;;;;20968813;28;20505;-69
2023/01/04 04:24:45;;;;;;;0.20;0.10;;;10.20;99.90;;;;;;20967972;28;20410;-70
2023/01/04 04:34:51;;;;;;;0.20;0.10;;;10.50;99.90;;;;;;20950624;28;20873;-70
2023/01/04 04:44:55;;;;;;;0.20;0.10;;;10.50;99.90;;;;;;20983677;28;20414;-70
2023/01/04 04:55:00;;;;;;;0.20;0.10;;;10.20;99.90;;;;;;20965415;28;20699;-70
2023/01/04 05:05:04;;;;;;;0.20;0.10;;;10.10;99.90;;;;;;20982105;28;20880;-69
2023/01/04 05:15:10;;;;;;;0.20;0.10;;;10.10;99.90;;;;;;20947341;28;20927;-69
2023/01/04 05:25:14;;;;;;;0.20;0.10;;;10.10;99.90;;;;;;20963146;28;20444;-70
2023/01/04 05:35:19;;;;;;;0.20;0.10;;;10.00;99.90;;;;;;20980448;28;20421;-69
2023/01/04 05:45:23;;;;;;;0.20;0.10;;;10.10;99.90;;;;;;20945014;28;20406;-70
2023/01/04 05:55:28;;;;;;;0.20;0.10;;;10.10;99.90;;;;;;20945634;28;20402;-69
2023/01/04 06:05:33;;;;;;;0.20;0.10;;;10.00;99.90;;;;;;20978734;28;20421;-70
2023/01/04 06:15:38;;;;;;;0.20;0.10;;;10.00;99.90;;;;;;20978287;28;20398;-70
2023/01/04 06:25:45;;;;;;;0.20;0.00;;;10.00;99.90;;;;;;20987451;28;20580;-70
2023/01/04 06:35:55;;;;;;;0.20;0.10;;;9.90;99.90;;;;;;20992998;28;20405;-70
2023/01/04 06:46:00;;;;;;;0.20;0.10;;;9.90;99.90;;;;;;20974728;28;20967;-69
2023/01/04 06:56:06;;;;;;;0.20;0.00;;;10.00;99.90;;;;;;20973990;28;20394;-69
2023/01/04 07:06:10;;;;;;;0.20;0.10;;;10.10;99.90;;;;;;20991423;28;20458;-70
2023/01/04 07:16:16;;;;;;;0.20;0.00;;;10.00;99.90;;;;;;20989815;28;20441;-70
2023/01/04 07:26:19;;;;;;;0.20;0.10;;;10.10;99.90;;;;;;20970510;28;20406;-70
2023/01/04 07:36:25;;;;;;;0.20;0.10;;;10.00;99.90;;;;;;20969875;28;20413;-69
2023/01/04 07:56:52;;;;;;;0.20;0.08;;;10.50;99.90;;;;;;20987032;28;20405;-69
2023/01/04 08:06:56;;;;;;;0.20;0.10;;;10.50;99.90;;;;;;20984729;28;20874;-70
2023/01/04 08:17:01;;;;;;;0.20;0.03;;;10.50;99.90;;;;;;20984808;28;20402;-70
2023/01/04 08:27:05;;;;;;;0.20;0.10;;;10.70;99.90;;;;;;20966404;28;20410;-70
2023/01/04 08:37:10;;;;;;;0.20;0.10;;;11.10;99.90;;;;;;20981655;28;20892;-70
2023/01/04 08:47:14;;;;;;;0.20;0.10;;;11.50;99.90;;;;;;20982097;28;20413;-70
2023/01/04 08:57:19;;;;;;;0.20;0.10;;;11.50;99.90;;;;;;20978340;28;20418;-69
2023/01/04 09:07:23;;;;;;;0.20;0.10;;;11.30;99.90;;;;;;20995947;28;20440;-71
2023/01/04 09:17:29;;;;;;;0.20;0.10;;;11.50;99.90;;;;;;20978915;28;20616;-71
2023/01/04 09:27:51;;;;;;;0.20;0.10;;;12.10;99.90;;;;;;20979905;28;20421;-70
2023/01/04 09:37:57;;;;;;;0.20;0.10;;;12.70;99.90;;;;;;20960711;28;20501;-70
2023/01/04 09:48:06;;;;;;;0.20;0.10;;;13.30;99.90;;;;;;20946937;28;20414;-68
2023/01/04 09:58:27;;;;;;;0.20;0.10;;;13.70;99.90;;;;;;20891158;28;20462;-69
2023/01/04 10:08:31;;;;;;;0.20;0.10;;;14.10;99.90;;;;;;20892051;28;20961;-69
2023/01/04 10:19:04;;;;;;;0.20;0.10;;;14.20;99.90;;;;;;20857556;28;20415;-70
2023/01/04 10:29:48;;;;;;;0.20;0.10;;;14.70;99.90;;;;;;20875279;28;20396;-69
2023/01/04 10:39:55;;;;;;;0.20;0.10;;;15.90;99.90;;;;;;20874152;28;20424;-70
2023/01/04 10:50:03;;;;;;;0.20;0.00;;;16.60;99.90;;;;;;20891948;28;20469;-69
2023/01/04 11:00:15;;;;;;;0.20;0.00;;;16.80;99.90;;;;;;20956125;28;20406;-71
2023/01/04 11:10:26;;;;;;;0.20;0.10;;;16.90;99.90;;;;;;20963433;28;20465;-69
2023/01/04 11:20:32;;;;;;;0.20;0.10;;;17.30;99.90;;;;;;20970813;28;20888;-68
2023/01/04 11:30:48;;;;;;;0.20;0.10;;;17.70;99.90;;;;;;20988046;28;20398;-70
2023/01/04 11:41:00;;;;;;;0.20;0.10;;;18.00;99.90;;;;;;20986565;28;20804;-69
2023/01/04 11:51:05;;;;;;;0.20;0.10;;;18.00;99.90;;;;;;20985580;28;20413;-69
2023/01/04 12:01:24;;;;;;;0.20;0.10;;;18.50;99.90;;;;;;20967142;28;20818;-70
2023/01/04 12:11:31;;;;;;;0.20;0.00;;;18.50;99.90;;;;;;20984641;28;20398;-70
2023/01/04 12:21:36;;;;;;;0.20;0.00;;;18.90;99.90;;;;;;20937279;28;20420;-68
2023/01/04 12:31:40;;;;;;;0.20;0.10;;;19.30;99.90;;;;;;20954542;28;20410;-68
2023/01/04 12:42:20;;;;;;;0.20;0.00;;;19.90;99.90;;;;;;20919159;28;20414;-71
2023/01/04 12:52:43;;;;;;;0.20;0.00;;;19.10;99.90;;;;;;20876822;28;20765;-69
2023/01/04 13:03:47;;;;;;;0.20;0.10;;;19.40;99.90;;;;;;20855722;28;21171;-70
2023/01/04 13:13:59;;;;;;;0.20;0.00;;;19.00;99.90;;;;;;20691933;28;20745;-70
2023/01/04 13:24:18;;;;;;;0.20;0.10;;;18.80;99.90;;;;;;20878576;28;20431;-70
2023/01/04 13:34:25;;;;;;;0.20;0.00;;;18.80;99.90;;;;;;20895763;28;20674;-70
2023/01/04 13:44:55;;;;;;;0.20;0.00;;;18.70;99.90;;;;;;20894263;28;20496;-69
2023/01/04 13:55:23;;;;;;;0.20;0.00;;;18.90;99.90;;;;;;20873265;28;20398;-70
2023/01/04 14:05:28;;;;;;;0.20;0.10;;;19.50;99.90;;;;;;20876413;28;20802;-70
2023/01/04 14:15:32;;;;;;;0.20;0.00;;;19.40;99.90;;;;;;20874918;28;20395;-69
2023/01/04 14:25:54;;;;;;;0.20;0.00;;;20.50;99.90;;;;;;20924828;28;21038;-73
2023/01/04 14:36:04;;;;;;;0.20;0.00;;;21.20;99.90;;;;;;20971521;28;20398;-70
2023/01/04 14:46:09;;;;;;;0.20;0.10;;;21.50;99.90;;;;;;20979411;28;20513;-70
2023/01/04 14:56:14;;;;;;;0.20;0.00;;;19.80;99.90;;;;;;20969424;28;20401;-70
2023/01/04 15:06:20;;;;;;;0.20;0.10;;;18.20;99.90;;;;;;20985416;28;20413;-71
2023/01/04 15:16:24;;;;;;;0.20;0.10;;;18.20;99.90;;;;;;20967955;28;20401;-71
2023/01/04 15:26:29;;;;;;;0.20;0.10;;;18.80;99.90;;;;;;20984985;28;20415;-72
2023/01/04 15:36:37;;;;;;;0.20;0.00;;;19.10;99.90;;;;;;20966717;28;20390;-71
2023/01/04 15:46:42;;;;;;;0.20;0.00;;;19.70;99.90;;;;;;20964973;28;20471;-72
2023/01/04 15:56:46;;;;;;;0.20;0.10;;;17.60;99.90;;;;;;20963369;28;20727;-72
2023/01/04 16:06:51;;;;;;;0.20;0.10;;;17.20;99.90;;;;;;20961428;28;20422;-71
2023/01/04 16:16:55;;;;;;;0.20;0.10;;;16.00;99.90;;;;;;20961370;28;20529;-73
2023/01/04 16:27:01;;;;;;;0.20;0.00;;;15.10;99.90;;;;;;20952689;28;20410;-72
2023/01/04 16:37:05;;;;;;;0.20;0.00;;;14.80;99.90;;;;;;20978216;28;20491;-72
2023/01/04 16:47:10;;;;;;;0.20;0.10;;;14.50;99.90;;;;;;20975234;28;20944;-72
2023/01/04 16:57:14;;;;;;;0.20;0.10;;;14.10;99.90;;;;;;20974472;28;20399;-72
2023/01/04 17:07:19;;;;;;;0.20;0.10;;;13.00;99.90;;;;;;20956588;28;20418;-71
2023/01/04 17:17:23;;;;;;;0.20;0.10;;;12.30;99.90;;;;;;20977882;28;20418;-72
2023/01/04 17:27:29;;;;;;;0.20;0.10;;;12.00;99.90;;;;;;20978531;28;20410;-73
2023/01/04 17:37:33;;;;;;;0.20;0.10;;;11.90;99.90;;;;;;20970864;28;20414;-70
2023/01/04 17:47:39;;;;;;;0.20;0.10;;;11.60;99.90;;;;;;20957274;28;20750;-72
2023/01/04 17:57:42;;;;;;;0.20;0.10;;;11.40;99.90;;;;;;20957853;28;20814;-69
2023/01/04 18:07:47;;;;;;;3.40;3.20;;;11.20;99.90;;;;;;20976099;28;20459;-71
2023/01/04 18:17:51;;;;;;;0.20;0.10;;;11.10;99.90;;;;;;20977425;28;20788;-71
2023/01/04 18:27:57;;;;;;;0.20;0.10;;;11.10;99.90;;;;;;20974178;28;20464;-71
2023/01/04 18:38:01;;;;;;;0.20;0.10;;;10.90;99.90;;;;;;20992390;28;20416;-71
2023/01/04 18:58:47;;;;;;;0.20;0.10;;;10.70;99.90;;;;;;20989557;28;20410;-73
2023/01/04 19:08:52;;;;;;;0.20;0.10;;;10.30;99.90;;;;;;20988573;28;20907;-69
2023/01/04 19:19:02;;;;;;;0.20;0.10;;;10.20;99.90;;;;;;20983372;28;21197;-70
2023/01/04 19:29:08;;;;;;;0.20;0.10;;;10.00;99.90;;;;;;20982179;28;20406;-70
2023/01/04 19:39:11;;;;;;;0.20;0.03;;;10.00;99.90;;;;;;20964037;28;20416;-70
2023/01/04 19:49:17;;;;;;;0.20;0.10;;;9.90;99.90;;;;;;20898086;28;20400;-69
2023/01/04 19:59:21;;;;;;;0.20;0.00;;;9.70;99.90;;;;;;20880471;28;20426;-71
2023/01/04 20:09:26;;;;;;;0.20;0.10;;;9.90;99.90;;;;;;20890149;28;20467;-72
2023/01/04 20:29:53;;;;;;;0.20;0.00;;;9.90;99.90;;;;;;20960145;28;20781;-71
2023/01/04 20:39:57;;;;;;;0.20;0.10;;;9.90;99.90;;;;;;20953183;28;20402;-71
2023/01/04 20:50:02;;;;;;;0.20;0.20;;;10.10;99.90;;;;;;20974224;28;20417;-71
2023/01/04 21:00:25;;;;;;;4.47;4.30;;;10.20;99.90;;;;;;20981525;28;20497;-71
2023/01/04 21:10:30;;;;;;;0.20;0.10;;;10.30;99.90;;;;;;20977952;28;20414;-72
2023/01/04 21:20:34;;;;;;;0.20;0.10;;;10.30;99.90;;;;;;20961701;28;20390;-73
2023/01/04 21:30:41;;;;;;;0.20;0.10;;;10.30;99.90;;;;;;20978638;28;20913;-73
2023/01/04 21:40:45;;;;;;;0.20;0.10;;;10.00;99.90;;;;;;20978840;28;20958;-75
2023/01/04 21:50:50;;;;;;;0.20;0.10;;;9.60;99.90;;;;;;20979161;28;20402;-72
2023/01/04 22:00:54;;;;;;;0.20;0.10;;;9.70;99.90;;;;;;20978673;28;20497;-75
2023/01/04 22:10:59;;;;;;;0.20;0.10;;;9.70;99.90;;;;;;20978933;28;20406;-76
2023/01/04 22:21:04;;;;;;;0.20;0.10;;;9.80;99.90;;;;;;20978654;28;20410;-76
2023/01/04 22:31:12;;;;;;;0.20;0.10;;;9.70;99.90;;;;;;20960320;28;20414;-75
2023/01/04 22:41:17;;;;;;;0.20;0.10;;;10.00;99.90;;;;;;20976622;28;20927;-71
2023/01/04 22:51:26;;;;;;;0.20;0.10;;;10.20;99.90;;;;;;20976942;28;20390;-71
2023/01/04 23:01:32;;;;;;;0.20;0.10;;;10.40;99.90;;;;;;20958087;28;20413;-71
2023/01/04 23:11:39;;;;;;;0.20;0.10;;;10.40;99.90;;;;;;20991234;28;20730;-71
2023/01/04 23:21:43;;;;;;;0.20;0.10;;;10.50;99.90;;;;;;20990244;28;20428;-73
2023/01/04 23:31:48;;;;;;;0.20;0.10;;;10.40;99.90;;;;;;20989115;28;20432;-72
2023/01/04 23:41:52;;;;;;;0.20;0.10;;;10.60;99.90;;;;;;20989551;28;20505;-71
2023/01/04 23:51:58;;;;;;;0.20;0.10;;;10.40;99.90;;;;;;20989467;28;20408;-71
